sensor_id;sensor_type;location;lat;lon;timestamp;P1;durP1;ratioP1;P2;durP2;ratioP2
54983;SDS011;40884;53.562;9.940;2023-08-21T00:00:35;11.87;;;4.23;;
54983;SDS011;40884;53.562;9.940;2023-08-21T00:01:35;14.87;;;4.73;;
54983;SDS011;40884;53.562;9.940;2023-08-21T00:02:35;9.17;;;4.13;;
54983;SDS011;40884;53.562;9.940;2023-08-21T00:03:35;9.30;;;4.17;;
54983;SDS011;40884;53.562;9.940;2023-08-21T00:04:36;11.03;;;4.80;;
54983;SDS011;40884;53.562;9.940;2023-08-21T00:05:36;8.87;;;4.10;;
54983;SDS011;40884;53.562;9.940;2023-08-21T00:06:36;9.97;;;4.37;;
54983;SDS011;40884;53.562;9.940;2023-08-21T00:07:36;10.50;;;4.43;;
54983;SDS011;40884;53.562;9.940;2023-08-21T00:08:36;9.23;;;4.00;;
54983;SDS011;40884;53.562;9.940;2023-08-21T00:09:37;9.27;;;4.33;;
54983;SDS011;40884;53.562;9.940;2023-08-21T00:10:37;9.77;;;4.17;;
54983;SDS011;40884;53.562;9.940;2023-08-21T00:11:37;8.10;;;4.53;;
54983;SDS011;40884;53.562;9.940;2023-08-21T00:12:38;12.13;;;5.03;;
54983;SDS011;40884;53.562;9.940;2023-08-21T00:13:38;9.97;;;4.30;;
54983;SDS011;40884;53.562;9.940;2023-08-21T00:14:38;10.97;;;4.77;;
54983;SDS011;40884;53.562;9.940;2023-08-21T00:15:38;11.73;;;4.20;;
54983;SDS011;40884;53.562;9.940;2023-08-21T00:16:38;10.97;;;4.67;;
54983;SDS011;40884;53.562;9.940;2023-08-21T00:17:38;9.83;;;4.20;;
54983;SDS011;40884;53.562;9.940;2023-08-21T00:18:38;15.50;;;4.37;;
54983;SDS011;40884;53.562;9.940;2023-08-21T00:19:38;12.93;;;4.67;;
54983;SDS011;40884;53.562;9.940;2023-08-21T00:20:39;15.03;;;4.63;;
54983;SDS011;40884;53.562;9.940;2023-08-21T00:21:39;13.13;;;4.53;;
54983;SDS011;40884;53.562;9.940;2023-08-21T00:22:39;12.77;;;4.67;;
54983;SDS011;40884;53.562;9.940;2023-08-21T00:23:39;9.03;;;4.10;;
54983;SDS011;40884;53.562;9.940;2023-08-21T00:24:39;10.70;;;4.80;;
54983;SDS011;40884;53.562;9.940;2023-08-21T00:25:39;10.33;;;4.23;;
54983;SDS011;40884;53.562;9.940;2023-08-21T00:26:39;10.07;;;4.13;;
54983;SDS011;40884;53.562;9.940;2023-08-21T00:27:39;8.67;;;3.90;;
54983;SDS011;40884;53.562;9.940;2023-08-21T00:28:40;13.27;;;4.70;;
54983;SDS011;40884;53.562;9.940;2023-08-21T00:29:40;13.43;;;4.47;;
54983;SDS011;40884;53.562;9.940;2023-08-21T00:30:41;9.97;;;4.50;;
54983;SDS011;40884;53.562;9.940;2023-08-21T00:31:41;9.87;;;4.53;;
54983;SDS011;40884;53.562;9.940;2023-08-21T00:32:41;9.30;;;4.40;;
54983;SDS011;40884;53.562;9.940;2023-08-21T00:33:42;9.93;;;4.87;;
54983;SDS011;40884;53.562;9.940;2023-08-21T00:34:42;12.90;;;4.47;;
54983;SDS011;40884;53.562;9.940;2023-08-21T00:35:42;8.17;;;4.03;;
54983;SDS011;40884;53.562;9.940;2023-08-21T00:36:42;9.90;;;4.80;;
54983;SDS011;40884;53.562;9.940;2023-08-21T00:37:42;9.77;;;4.43;;
54983;SDS011;40884;53.562;9.940;2023-08-21T00:38:42;11.73;;;4.50;;
54983;SDS011;40884;53.562;9.940;2023-08-21T00:39:43;11.20;;;4.47;;
54983;SDS011;40884;53.562;9.940;2023-08-21T00:40:43;11.97;;;4.57;;
54983;SDS011;40884;53.562;9.940;2023-08-21T00:41:43;10.30;;;4.20;;
54983;SDS011;40884;53.562;9.940;2023-08-21T00:42:43;10.37;;;4.40;;
54983;SDS011;40884;53.562;9.940;2023-08-21T00:43:43;9.27;;;3.97;;
54983;SDS011;40884;53.562;9.940;2023-08-21T00:44:44;9.87;;;4.30;;
54983;SDS011;40884;53.562;9.940;2023-08-21T00:45:45;9.30;;;4.13;;
54983;SDS011;40884;53.562;9.940;2023-08-21T00:46:46;12.40;;;4.30;;
54983;SDS011;40884;53.562;9.940;2023-08-21T00:47:47;9.13;;;4.63;;
54983;SDS011;40884;53.562;9.940;2023-08-21T00:48:47;11.00;;;4.47;;
54983;SDS011;40884;53.562;9.940;2023-08-21T00:49:47;8.70;;;3.80;;
54983;SDS011;40884;53.562;9.940;2023-08-21T00:50:47;7.80;;;4.13;;
54983;SDS011;40884;53.562;9.940;2023-08-21T00:51:48;9.50;;;4.00;;
54983;SDS011;40884;53.562;9.940;2023-08-21T00:52:49;10.53;;;3.90;;
54983;SDS011;40884;53.562;9.940;2023-08-21T00:53:50;11.97;;;4.40;;
54983;SDS011;40884;53.562;9.940;2023-08-21T00:54:50;11.27;;;4.33;;
54983;SDS011;40884;53.562;9.940;2023-08-21T00:55:50;12.00;;;3.80;;
54983;SDS011;40884;53.562;9.940;2023-08-21T00:56:50;10.30;;;4.30;;
54983;SDS011;40884;53.562;9.940;2023-08-21T00:57:50;12.37;;;4.77;;
54983;SDS011;40884;53.562;9.940;2023-08-21T00:58:50;8.17;;;4.03;;
54983;SDS011;40884;53.562;9.940;2023-08-21T00:59:51;8.73;;;4.10;;
54983;SDS011;40884;53.562;9.940;2023-08-21T01:00:51;12.80;;;4.23;;
54983;SDS011;40884;53.562;9.940;2023-08-21T01:01:53;9.63;;;4.20;;
54983;SDS011;40884;53.562;9.940;2023-08-21T01:02:53;9.40;;;4.37;;
54983;SDS011;40884;53.562;9.940;2023-08-21T01:03:53;13.67;;;5.07;;
54983;SDS011;40884;53.562;9.940;2023-08-21T01:04:53;11.37;;;4.53;;
54983;SDS011;40884;53.562;9.940;2023-08-21T01:05:54;10.47;;;4.50;;
54983;SDS011;40884;53.562;9.940;2023-08-21T01:06:54;9.37;;;4.13;;
54983;SDS011;40884;53.562;9.940;2023-08-21T01:08:06;9.20;;;4.13;;
54983;SDS011;40884;53.562;9.940;2023-08-21T01:09:12;11.23;;;4.43;;
54983;SDS011;40884;53.562;9.940;2023-08-21T01:11:18;9.20;;;4.20;;
54983;SDS011;40884;53.562;9.940;2023-08-21T01:15:07;11.20;;;4.30;;
54983;SDS011;40884;53.562;9.940;2023-08-21T01:16:07;8.10;;;3.93;;
54983;SDS011;40884;53.562;9.940;2023-08-21T01:17:08;11.83;;;4.20;;
54983;SDS011;40884;53.562;9.940;2023-08-21T01:18:09;7.73;;;3.97;;
54983;SDS011;40884;53.562;9.940;2023-08-21T01:19:11;11.50;;;4.77;;
54983;SDS011;40884;53.562;9.940;2023-08-21T01:20:15;9.27;;;4.10;;
54983;SDS011;40884;53.562;9.940;2023-08-21T01:21:15;8.87;;;4.20;;
54983;SDS011;40884;53.562;9.940;2023-08-21T01:22:16;12.37;;;4.47;;
54983;SDS011;40884;53.562;9.940;2023-08-21T01:23:32;11.67;;;4.17;;
54983;SDS011;40884;53.562;9.940;2023-08-21T01:24:32;9.50;;;4.40;;
54983;SDS011;40884;53.562;9.940;2023-08-21T01:25:33;9.40;;;4.17;;
54983;SDS011;40884;53.562;9.940;2023-08-21T01:26:35;11.23;;;4.50;;
54983;SDS011;40884;53.562;9.940;2023-08-21T01:27:35;13.27;;;4.30;;
54983;SDS011;40884;53.562;9.940;2023-08-21T01:28:36;9.27;;;4.10;;
54983;SDS011;40884;53.562;9.940;2023-08-21T01:29:36;12.70;;;4.80;;
54983;SDS011;40884;53.562;9.940;2023-08-21T01:30:36;11.27;;;4.57;;
54983;SDS011;40884;53.562;9.940;2023-08-21T01:31:37;7.30;;;3.93;;
54983;SDS011;40884;53.562;9.940;2023-08-21T01:33:42;11.37;;;4.60;;
54983;SDS011;40884;53.562;9.940;2023-08-21T01:34:45;10.33;;;4.57;;
54983;SDS011;40884;53.562;9.940;2023-08-21T01:35:46;10.10;;;4.00;;
54983;SDS011;40884;53.562;9.940;2023-08-21T01:36:46;9.30;;;4.40;;
54983;SDS011;40884;53.562;9.940;2023-08-21T01:37:47;11.37;;;3.70;;
54983;SDS011;40884;53.562;9.940;2023-08-21T01:38:48;10.57;;;4.27;;
54983;SDS011;40884;53.562;9.940;2023-08-21T01:39:48;11.20;;;4.43;;
54983;SDS011;40884;53.562;9.940;2023-08-21T01:40:48;9.03;;;4.40;;
54983;SDS011;40884;53.562;9.940;2023-08-21T01:41:49;12.10;;;4.13;;
54983;SDS011;40884;53.562;9.940;2023-08-21T01:42:49;11.00;;;4.60;;
54983;SDS011;40884;53.562;9.940;2023-08-21T01:43:49;11.97;;;4.40;;
54983;SDS011;40884;53.562;9.940;2023-08-21T01:44:50;10.73;;;4.63;;
54983;SDS011;40884;53.562;9.940;2023-08-21T01:45:50;11.10;;;4.10;;
54983;SDS011;40884;53.562;9.940;2023-08-21T01:46:51;11.33;;;4.70;;
54983;SDS011;40884;53.562;9.940;2023-08-21T01:47:51;10.20;;;4.20;;
54983;SDS011;40884;53.562;9.940;2023-08-21T01:48:51;12.20;;;4.80;;
54983;SDS011;40884;53.562;9.940;2023-08-21T01:49:51;10.97;;;4.57;;
54983;SDS011;40884;53.562;9.940;2023-08-21T01:50:51;7.67;;;4.10;;
54983;SDS011;40884;53.562;9.940;2023-08-21T01:51:52;7.70;;;4.30;;
54983;SDS011;40884;53.562;9.940;2023-08-21T01:52:52;11.43;;;4.60;;
54983;SDS011;40884;53.562;9.940;2023-08-21T01:53:52;10.77;;;4.37;;
54983;SDS011;40884;53.562;9.940;2023-08-21T01:54:52;10.47;;;4.20;;
54983;SDS011;40884;53.562;9.940;2023-08-21T01:55:52;11.83;;;4.77;;
54983;SDS011;40884;53.562;9.940;2023-08-21T01:56:52;9.83;;;4.40;;
54983;SDS011;40884;53.562;9.940;2023-08-21T01:57:52;11.97;;;4.87;;
54983;SDS011;40884;53.562;9.940;2023-08-21T01:58:52;9.63;;;4.37;;
54983;SDS011;40884;53.562;9.940;2023-08-21T01:59:53;7.60;;;3.90;;
54983;SDS011;40884;53.562;9.940;2023-08-21T02:00:53;10.27;;;4.43;;
54983;SDS011;40884;53.562;9.940;2023-08-21T02:01:53;9.93;;;4.20;;
54983;SDS011;40884;53.562;9.940;2023-08-21T02:02:53;9.83;;;4.57;;
54983;SDS011;40884;53.562;9.940;2023-08-21T02:03:53;10.63;;;3.93;;
54983;SDS011;40884;53.562;9.940;2023-08-21T02:04:53;9.13;;;4.30;;
54983;SDS011;40884;53.562;9.940;2023-08-21T02:05:56;10.40;;;3.97;;
54983;SDS011;40884;53.562;9.940;2023-08-21T02:06:57;9.13;;;4.70;;
54983;SDS011;40884;53.562;9.940;2023-08-21T02:07:57;10.03;;;4.50;;
54983;SDS011;40884;53.562;9.940;2023-08-21T02:08:57;7.97;;;4.40;;
54983;SDS011;40884;53.562;9.940;2023-08-21T02:09:57;9.33;;;4.07;;
54983;SDS011;40884;53.562;9.940;2023-08-21T02:10:57;10.60;;;4.83;;
54983;SDS011;40884;53.562;9.940;2023-08-21T02:11:58;10.50;;;5.00;;
54983;SDS011;40884;53.562;9.940;2023-08-21T02:12:58;9.00;;;4.47;;
54983;SDS011;40884;53.562;9.940;2023-08-21T02:13:59;9.30;;;4.20;;
54983;SDS011;40884;53.562;9.940;2023-08-21T02:14:59;9.83;;;4.80;;
54983;SDS011;40884;53.562;9.940;2023-08-21T02:15:59;8.83;;;4.23;;
54983;SDS011;40884;53.562;9.940;2023-08-21T02:17:00;9.20;;;4.93;;
54983;SDS011;40884;53.562;9.940;2023-08-21T02:18:00;8.37;;;4.00;;
54983;SDS011;40884;53.562;9.940;2023-08-21T02:19:00;9.63;;;4.47;;
54983;SDS011;40884;53.562;9.940;2023-08-21T02:20:00;10.60;;;4.80;;
54983;SDS011;40884;53.562;9.940;2023-08-21T02:21:01;8.00;;;4.30;;
54983;SDS011;40884;53.562;9.940;2023-08-21T02:22:01;7.80;;;3.87;;
54983;SDS011;40884;53.562;9.940;2023-08-21T02:23:01;10.60;;;4.63;;
54983;SDS011;40884;53.562;9.940;2023-08-21T02:24:01;9.27;;;4.00;;
54983;SDS011;40884;53.562;9.940;2023-08-21T02:25:01;10.13;;;4.50;;
54983;SDS011;40884;53.562;9.940;2023-08-21T02:26:01;8.30;;;3.97;;
54983;SDS011;40884;53.562;9.940;2023-08-21T02:27:02;7.20;;;3.77;;
54983;SDS011;40884;53.562;9.940;2023-08-21T02:28:02;8.23;;;4.10;;
54983;SDS011;40884;53.562;9.940;2023-08-21T02:29:02;10.20;;;4.07;;
54983;SDS011;40884;53.562;9.940;2023-08-21T02:30:02;8.67;;;4.30;;
54983;SDS011;40884;53.562;9.940;2023-08-21T02:31:03;11.67;;;5.10;;
54983;SDS011;40884;53.562;9.940;2023-08-21T02:32:04;9.93;;;4.33;;
54983;SDS011;40884;53.562;9.940;2023-08-21T02:33:04;9.57;;;4.00;;
54983;SDS011;40884;53.562;9.940;2023-08-21T02:34:05;11.23;;;4.70;;
54983;SDS011;40884;53.562;9.940;2023-08-21T02:35:05;7.03;;;4.20;;
54983;SDS011;40884;53.562;9.940;2023-08-21T02:36:05;9.73;;;4.60;;
54983;SDS011;40884;53.562;9.940;2023-08-21T02:37:05;10.50;;;4.20;;
54983;SDS011;40884;53.562;9.940;2023-08-21T02:38:05;8.20;;;4.30;;
54983;SDS011;40884;53.562;9.940;2023-08-21T02:39:09;7.87;;;4.07;;
54983;SDS011;40884;53.562;9.940;2023-08-21T02:40:09;9.50;;;4.20;;
54983;SDS011;40884;53.562;9.940;2023-08-21T02:41:09;11.50;;;4.57;;
54983;SDS011;40884;53.562;9.940;2023-08-21T02:42:10;10.50;;;4.13;;
54983;SDS011;40884;53.562;9.940;2023-08-21T02:43:10;7.67;;;4.30;;
54983;SDS011;40884;53.562;9.940;2023-08-21T02:44:10;8.57;;;4.30;;
54983;SDS011;40884;53.562;9.940;2023-08-21T02:45:10;8.37;;;4.33;;
54983;SDS011;40884;53.562;9.940;2023-08-21T02:46:10;9.57;;;4.70;;
54983;SDS011;40884;53.562;9.940;2023-08-21T02:47:10;8.90;;;4.20;;
54983;SDS011;40884;53.562;9.940;2023-08-21T02:48:10;10.13;;;4.17;;
54983;SDS011;40884;53.562;9.940;2023-08-21T02:49:10;9.80;;;4.33;;
54983;SDS011;40884;53.562;9.940;2023-08-21T02:50:11;9.90;;;4.73;;
54983;SDS011;40884;53.562;9.940;2023-08-21T02:51:11;6.90;;;3.97;;
54983;SDS011;40884;53.562;9.940;2023-08-21T02:52:11;12.77;;;4.57;;
54983;SDS011;40884;53.562;9.940;2023-08-21T02:53:12;8.50;;;4.40;;
54983;SDS011;40884;53.562;9.940;2023-08-21T02:54:12;9.40;;;4.43;;
54983;SDS011;40884;53.562;9.940;2023-08-21T02:55:12;10.27;;;4.77;;
54983;SDS011;40884;53.562;9.940;2023-08-21T02:56:12;8.50;;;3.90;;
54983;SDS011;40884;53.562;9.940;2023-08-21T02:57:12;10.27;;;5.03;;
54983;SDS011;40884;53.562;9.940;2023-08-21T02:58:12;9.97;;;4.47;;
54983;SDS011;40884;53.562;9.940;2023-08-21T02:59:12;8.67;;;4.33;;
54983;SDS011;40884;53.562;9.940;2023-08-21T03:00:13;8.97;;;4.43;;
54983;SDS011;40884;53.562;9.940;2023-08-21T03:01:13;9.40;;;4.40;;
54983;SDS011;40884;53.562;9.940;2023-08-21T03:02:13;7.77;;;4.17;;
54983;SDS011;40884;53.562;9.940;2023-08-21T03:03:13;8.33;;;4.20;;
54983;SDS011;40884;53.562;9.940;2023-08-21T03:04:13;10.03;;;4.57;;
54983;SDS011;40884;53.562;9.940;2023-08-21T03:05:13;9.17;;;4.40;;
54983;SDS011;40884;53.562;9.940;2023-08-21T03:06:14;10.87;;;3.97;;
54983;SDS011;40884;53.562;9.940;2023-08-21T03:07:14;9.37;;;4.30;;
54983;SDS011;40884;53.562;9.940;2023-08-21T03:08:14;11.07;;;4.27;;
54983;SDS011;40884;53.562;9.940;2023-08-21T03:09:14;8.77;;;3.90;;
54983;SDS011;40884;53.562;9.940;2023-08-21T03:10:14;8.17;;;3.67;;
54983;SDS011;40884;53.562;9.940;2023-08-21T03:11:15;9.20;;;3.70;;
54983;SDS011;40884;53.562;9.940;2023-08-21T03:12:15;9.27;;;3.87;;
54983;SDS011;40884;53.562;9.940;2023-08-21T03:13:15;9.93;;;3.93;;
54983;SDS011;40884;53.562;9.940;2023-08-21T03:14:15;11.40;;;4.23;;
54983;SDS011;40884;53.562;9.940;2023-08-21T03:15:15;8.70;;;3.83;;
54983;SDS011;40884;53.562;9.940;2023-08-21T03:16:16;8.43;;;3.83;;
54983;SDS011;40884;53.562;9.940;2023-08-21T03:17:16;7.83;;;3.73;;
54983;SDS011;40884;53.562;9.940;2023-08-21T03:18:16;11.93;;;4.40;;
54983;SDS011;40884;53.562;9.940;2023-08-21T03:19:16;9.90;;;3.83;;
54983;SDS011;40884;53.562;9.940;2023-08-21T03:20:16;9.40;;;3.70;;
54983;SDS011;40884;53.562;9.940;2023-08-21T03:21:16;13.33;;;5.03;;
54983;SDS011;40884;53.562;9.940;2023-08-21T03:22:17;8.07;;;3.70;;
54983;SDS011;40884;53.562;9.940;2023-08-21T03:23:17;8.33;;;3.87;;
54983;SDS011;40884;53.562;9.940;2023-08-21T03:24:18;9.57;;;3.80;;
54983;SDS011;40884;53.562;9.940;2023-08-21T03:25:18;9.40;;;3.60;;
54983;SDS011;40884;53.562;9.940;2023-08-21T03:26:18;10.37;;;3.80;;
54983;SDS011;40884;53.562;9.940;2023-08-21T03:27:18;8.00;;;3.43;;
54983;SDS011;40884;53.562;9.940;2023-08-21T03:28:19;8.67;;;3.50;;
54983;SDS011;40884;53.562;9.940;2023-08-21T03:29:19;9.00;;;3.60;;
54983;SDS011;40884;53.562;9.940;2023-08-21T03:30:19;9.50;;;4.23;;
54983;SDS011;40884;53.562;9.940;2023-08-21T03:31:20;8.57;;;3.57;;
54983;SDS011;40884;53.562;9.940;2023-08-21T03:32:20;8.70;;;3.40;;
54983;SDS011;40884;53.562;9.940;2023-08-21T03:33:21;8.40;;;3.20;;
54983;SDS011;40884;53.562;9.940;2023-08-21T03:34:21;11.57;;;3.57;;
54983;SDS011;40884;53.562;9.940;2023-08-21T03:35:23;9.67;;;3.93;;
54983;SDS011;40884;53.562;9.940;2023-08-21T03:36:23;8.40;;;3.87;;
54983;SDS011;40884;53.562;9.940;2023-08-21T03:37:24;6.00;;;3.10;;
54983;SDS011;40884;53.562;9.940;2023-08-21T03:38:24;6.70;;;3.33;;
54983;SDS011;40884;53.562;9.940;2023-08-21T03:39:24;10.70;;;3.57;;
54983;SDS011;40884;53.562;9.940;2023-08-21T03:40:24;8.80;;;3.37;;
54983;SDS011;40884;53.562;9.940;2023-08-21T03:41:26;6.90;;;3.00;;
54983;SDS011;40884;53.562;9.940;2023-08-21T03:42:27;8.93;;;3.47;;
54983;SDS011;40884;53.562;9.940;2023-08-21T03:43:27;7.10;;;3.23;;
54983;SDS011;40884;53.562;9.940;2023-08-21T03:44:27;6.97;;;3.47;;
54983;SDS011;40884;53.562;9.940;2023-08-21T03:45:27;9.77;;;3.90;;
54983;SDS011;40884;53.562;9.940;2023-08-21T03:46:28;7.87;;;3.37;;
54983;SDS011;40884;53.562;9.940;2023-08-21T03:47:29;8.40;;;3.50;;
54983;SDS011;40884;53.562;9.940;2023-08-21T03:48:34;8.77;;;3.97;;
54983;SDS011;40884;53.562;9.940;2023-08-21T03:49:36;9.20;;;3.37;;
54983;SDS011;40884;53.562;9.940;2023-08-21T03:50:36;7.33;;;3.23;;
54983;SDS011;40884;53.562;9.940;2023-08-21T03:51:36;7.27;;;3.17;;
54983;SDS011;40884;53.562;9.940;2023-08-21T03:52:36;6.73;;;3.30;;
54983;SDS011;40884;53.562;9.940;2023-08-21T03:53:36;11.80;;;3.60;;
54983;SDS011;40884;53.562;9.940;2023-08-21T03:54:36;6.07;;;3.30;;
54983;SDS011;40884;53.562;9.940;2023-08-21T03:55:36;6.67;;;3.03;;
54983;SDS011;40884;53.562;9.940;2023-08-21T03:56:36;10.77;;;3.40;;
54983;SDS011;40884;53.562;9.940;2023-08-21T03:57:37;7.00;;;3.43;;
54983;SDS011;40884;53.562;9.940;2023-08-21T03:58:38;6.53;;;2.70;;
54983;SDS011;40884;53.562;9.940;2023-08-21T03:59:38;7.50;;;3.30;;
54983;SDS011;40884;53.562;9.940;2023-08-21T04:00:39;7.33;;;3.10;;
54983;SDS011;40884;53.562;9.940;2023-08-21T04:01:40;6.90;;;3.00;;
54983;SDS011;40884;53.562;9.940;2023-08-21T04:02:40;8.33;;;3.43;;
54983;SDS011;40884;53.562;9.940;2023-08-21T04:03:40;7.80;;;3.43;;
54983;SDS011;40884;53.562;9.940;2023-08-21T04:04:40;9.17;;;3.37;;
54983;SDS011;40884;53.562;9.940;2023-08-21T04:05:40;10.60;;;3.10;;
54983;SDS011;40884;53.562;9.940;2023-08-21T04:06:41;6.57;;;3.53;;
54983;SDS011;40884;53.562;9.940;2023-08-21T04:07:41;7.37;;;3.23;;
54983;SDS011;40884;53.562;9.940;2023-08-21T04:08:41;5.93;;;3.20;;
54983;SDS011;40884;53.562;9.940;2023-08-21T04:09:42;6.23;;;2.83;;
54983;SDS011;40884;53.562;9.940;2023-08-21T04:10:43;7.50;;;3.00;;
54983;SDS011;40884;53.562;9.940;2023-08-21T04:11:43;7.77;;;2.93;;
54983;SDS011;40884;53.562;9.940;2023-08-21T04:12:43;10.73;;;3.97;;
54983;SDS011;40884;53.562;9.940;2023-08-21T04:13:43;9.07;;;3.33;;
54983;SDS011;40884;53.562;9.940;2023-08-21T04:14:44;9.20;;;3.90;;
54983;SDS011;40884;53.562;9.940;2023-08-21T04:15:44;9.93;;;3.90;;
54983;SDS011;40884;53.562;9.940;2023-08-21T04:16:45;10.23;;;4.07;;
54983;SDS011;40884;53.562;9.940;2023-08-21T04:17:45;9.60;;;3.60;;
54983;SDS011;40884;53.562;9.940;2023-08-21T04:18:45;7.90;;;3.40;;
54983;SDS011;40884;53.562;9.940;2023-08-21T04:19:45;6.77;;;3.73;;
54983;SDS011;40884;53.562;9.940;2023-08-21T04:20:47;7.90;;;3.60;;
54983;SDS011;40884;53.562;9.940;2023-08-21T04:21:47;7.30;;;4.27;;
54983;SDS011;40884;53.562;9.940;2023-08-21T04:22:48;8.47;;;3.60;;
54983;SDS011;40884;53.562;9.940;2023-08-21T04:23:48;7.37;;;3.60;;
54983;SDS011;40884;53.562;9.940;2023-08-21T04:24:48;9.63;;;4.00;;
54983;SDS011;40884;53.562;9.940;2023-08-21T04:25:48;8.60;;;3.80;;
54983;SDS011;40884;53.562;9.940;2023-08-21T04:26:48;10.83;;;4.07;;
54983;SDS011;40884;53.562;9.940;2023-08-21T04:27:48;8.90;;;3.40;;
54983;SDS011;40884;53.562;9.940;2023-08-21T04:28:49;7.47;;;3.53;;
54983;SDS011;40884;53.562;9.940;2023-08-21T04:29:49;8.03;;;3.70;;
54983;SDS011;40884;53.562;9.940;2023-08-21T04:30:52;5.43;;;3.50;;
54983;SDS011;40884;53.562;9.940;2023-08-21T04:31:52;10.87;;;4.07;;
54983;SDS011;40884;53.562;9.940;2023-08-21T04:32:52;10.07;;;3.70;;
54983;SDS011;40884;53.562;9.940;2023-08-21T04:33:53;7.10;;;3.60;;
54983;SDS011;40884;53.562;9.940;2023-08-21T04:34:54;6.93;;;3.47;;
54983;SDS011;40884;53.562;9.940;2023-08-21T04:35:55;10.00;;;3.70;;
54983;SDS011;40884;53.562;9.940;2023-08-21T04:36:56;7.90;;;3.67;;
54983;SDS011;40884;53.562;9.940;2023-08-21T04:37:57;10.00;;;3.80;;
54983;SDS011;40884;53.562;9.940;2023-08-21T04:38:58;8.30;;;3.73;;
54983;SDS011;40884;53.562;9.940;2023-08-21T04:39:58;8.47;;;3.90;;
54983;SDS011;40884;53.562;9.940;2023-08-21T04:41:08;8.40;;;3.50;;
54983;SDS011;40884;53.562;9.940;2023-08-21T04:42:10;5.60;;;3.30;;
54983;SDS011;40884;53.562;9.940;2023-08-21T04:43:10;12.00;;;3.80;;
54983;SDS011;40884;53.562;9.940;2023-08-21T04:44:10;9.90;;;3.83;;
54983;SDS011;40884;53.562;9.940;2023-08-21T04:45:10;10.07;;;3.77;;
54983;SDS011;40884;53.562;9.940;2023-08-21T04:46:12;9.47;;;3.73;;
54983;SDS011;40884;53.562;9.940;2023-08-21T04:47:18;10.80;;;3.73;;
54983;SDS011;40884;53.562;9.940;2023-08-21T04:48:18;9.60;;;3.27;;
54983;SDS011;40884;53.562;9.940;2023-08-21T04:49:21;8.93;;;3.43;;
54983;SDS011;40884;53.562;9.940;2023-08-21T04:50:21;7.03;;;3.40;;
54983;SDS011;40884;53.562;9.940;2023-08-21T04:51:23;11.27;;;3.80;;
54983;SDS011;40884;53.562;9.940;2023-08-21T04:52:24;9.97;;;3.60;;
54983;SDS011;40884;53.562;9.940;2023-08-21T04:53:24;9.83;;;3.90;;
54983;SDS011;40884;53.562;9.940;2023-08-21T04:54:25;8.40;;;3.30;;
54983;SDS011;40884;53.562;9.940;2023-08-21T04:55:26;9.47;;;3.50;;
54983;SDS011;40884;53.562;9.940;2023-08-21T04:56:26;11.20;;;3.60;;
54983;SDS011;40884;53.562;9.940;2023-08-21T04:57:27;7.13;;;3.20;;
54983;SDS011;40884;53.562;9.940;2023-08-21T04:58:27;7.20;;;3.27;;
54983;SDS011;40884;53.562;9.940;2023-08-21T04:59:27;14.80;;;3.90;;
54983;SDS011;40884;53.562;9.940;2023-08-21T05:00:27;13.43;;;4.23;;
54983;SDS011;40884;53.562;9.940;2023-08-21T05:01:28;8.10;;;3.47;;
54983;SDS011;40884;53.562;9.940;2023-08-21T05:02:30;8.43;;;3.50;;
54983;SDS011;40884;53.562;9.940;2023-08-21T05:03:30;9.70;;;3.50;;
54983;SDS011;40884;53.562;9.940;2023-08-21T05:04:31;10.20;;;3.33;;
54983;SDS011;40884;53.562;9.940;2023-08-21T05:05:31;10.00;;;3.90;;
54983;SDS011;40884;53.562;9.940;2023-08-21T05:06:32;8.80;;;3.30;;
54983;SDS011;40884;53.562;9.940;2023-08-21T05:07:32;11.23;;;3.47;;
54983;SDS011;40884;53.562;9.940;2023-08-21T05:08:35;10.47;;;3.50;;
54983;SDS011;40884;53.562;9.940;2023-08-21T05:09:40;8.80;;;3.63;;
54983;SDS011;40884;53.562;9.940;2023-08-21T05:10:42;10.97;;;3.93;;
54983;SDS011;40884;53.562;9.940;2023-08-21T05:11:42;11.73;;;3.60;;
54983;SDS011;40884;53.562;9.940;2023-08-21T05:12:43;9.47;;;3.70;;
54983;SDS011;40884;53.562;9.940;2023-08-21T05:13:44;8.63;;;3.57;;
54983;SDS011;40884;53.562;9.940;2023-08-21T05:14:46;8.93;;;3.27;;
54983;SDS011;40884;53.562;9.940;2023-08-21T05:15:53;9.27;;;3.53;;
54983;SDS011;40884;53.562;9.940;2023-08-21T05:16:53;6.83;;;3.83;;
54983;SDS011;40884;53.562;9.940;2023-08-21T05:17:54;15.00;;;3.90;;
54983;SDS011;40884;53.562;9.940;2023-08-21T05:18:56;8.90;;;3.30;;
54983;SDS011;40884;53.562;9.940;2023-08-21T05:19:57;11.27;;;3.90;;
54983;SDS011;40884;53.562;9.940;2023-08-21T05:20:57;10.63;;;3.80;;
54983;SDS011;40884;53.562;9.940;2023-08-21T05:21:58;13.27;;;4.30;;
54983;SDS011;40884;53.562;9.940;2023-08-21T05:22:58;10.63;;;4.07;;
54983;SDS011;40884;53.562;9.940;2023-08-21T05:23:58;10.20;;;3.43;;
54983;SDS011;40884;53.562;9.940;2023-08-21T05:25:00;10.03;;;3.63;;
54983;SDS011;40884;53.562;9.940;2023-08-21T05:26:01;10.87;;;3.47;;
54983;SDS011;40884;53.562;9.940;2023-08-21T05:27:01;9.10;;;3.20;;
54983;SDS011;40884;53.562;9.940;2023-08-21T05:28:01;11.07;;;3.27;;
54983;SDS011;40884;53.562;9.940;2023-08-21T05:29:02;7.80;;;3.23;;
54983;SDS011;40884;53.562;9.940;2023-08-21T05:30:02;8.13;;;3.50;;
54983;SDS011;40884;53.562;9.940;2023-08-21T05:31:03;8.73;;;3.67;;
54983;SDS011;40884;53.562;9.940;2023-08-21T05:32:14;7.30;;;3.13;;
54983;SDS011;40884;53.562;9.940;2023-08-21T05:33:15;11.13;;;3.67;;
54983;SDS011;40884;53.562;9.940;2023-08-21T05:34:17;10.90;;;4.00;;
54983;SDS011;40884;53.562;9.940;2023-08-21T05:35:17;8.60;;;3.50;;
54983;SDS011;40884;53.562;9.940;2023-08-21T05:36:17;11.50;;;4.07;;
54983;SDS011;40884;53.562;9.940;2023-08-21T05:37:17;7.73;;;3.60;;
54983;SDS011;40884;53.562;9.940;2023-08-21T05:38:17;9.83;;;3.63;;
54983;SDS011;40884;53.562;9.940;2023-08-21T05:39:18;7.50;;;3.37;;
54983;SDS011;40884;53.562;9.940;2023-08-21T05:40:18;10.40;;;3.90;;
54983;SDS011;40884;53.562;9.940;2023-08-21T05:41:19;9.23;;;3.83;;
54983;SDS011;40884;53.562;9.940;2023-08-21T05:42:20;9.50;;;3.53;;
54983;SDS011;40884;53.562;9.940;2023-08-21T05:43:20;8.77;;;3.20;;
54983;SDS011;40884;53.562;9.940;2023-08-21T05:44:21;9.83;;;3.73;;
54983;SDS011;40884;53.562;9.940;2023-08-21T05:45:21;9.53;;;3.90;;
54983;SDS011;40884;53.562;9.940;2023-08-21T05:46:21;7.43;;;3.43;;
54983;SDS011;40884;53.562;9.940;2023-08-21T05:47:21;9.90;;;3.83;;
54983;SDS011;40884;53.562;9.940;2023-08-21T05:48:22;10.93;;;3.53;;
54983;SDS011;40884;53.562;9.940;2023-08-21T05:49:22;9.57;;;3.60;;
54983;SDS011;40884;53.562;9.940;2023-08-21T05:50:22;8.40;;;3.37;;
54983;SDS011;40884;53.562;9.940;2023-08-21T05:51:22;12.30;;;4.00;;
54983;SDS011;40884;53.562;9.940;2023-08-21T05:52:23;8.27;;;3.70;;
54983;SDS011;40884;53.562;9.940;2023-08-21T05:53:24;8.70;;;3.20;;
54983;SDS011;40884;53.562;9.940;2023-08-21T05:54:26;14.77;;;3.47;;
54983;SDS011;40884;53.562;9.940;2023-08-21T05:55:26;8.87;;;3.37;;
54983;SDS011;40884;53.562;9.940;2023-08-21T05:56:27;8.07;;;3.30;;
54983;SDS011;40884;53.562;9.940;2023-08-21T05:57:27;8.27;;;2.90;;
54983;SDS011;40884;53.562;9.940;2023-08-21T05:58:27;12.53;;;3.53;;
54983;SDS011;40884;53.562;9.940;2023-08-21T05:59:29;11.20;;;3.37;;
54983;SDS011;40884;53.562;9.940;2023-08-21T06:00:29;8.73;;;3.37;;
54983;SDS011;40884;53.562;9.940;2023-08-21T06:01:29;6.30;;;3.20;;
54983;SDS011;40884;53.562;9.940;2023-08-21T06:02:30;8.77;;;3.13;;
54983;SDS011;40884;53.562;9.940;2023-08-21T06:03:32;11.27;;;3.23;;
54983;SDS011;40884;53.562;9.940;2023-08-21T06:04:39;10.20;;;3.20;;
54983;SDS011;40884;53.562;9.940;2023-08-21T06:05:41;7.87;;;3.27;;
54983;SDS011;40884;53.562;9.940;2023-08-21T06:06:41;10.93;;;3.87;;
54983;SDS011;40884;53.562;9.940;2023-08-21T06:07:42;10.47;;;3.30;;
54983;SDS011;40884;53.562;9.940;2023-08-21T06:08:42;6.43;;;3.03;;